Time;durP1;ratioP1;P1;durP2;ratioP2;P2;SDS_P1;SDS_P2;PMS_P1;PMS_P2;Temp;Humidity;BMP_temperature;BMP_pressure;BME280_temperature;BME280_humidity;BME280_pressure;Samples;Min_cycle;Max_cycle;Signal;HPM_P1;HPM_P2
2023/06/12 00:02:05;;;;;;;8.30;3.85;;;25.40;58.80;;;;;;6185426;23;20531;-89
2023/06/12 00:04:31;;;;;;;7.82;4.03;;;25.40;59.00;;;;;;6185796;23;20009;-89
2023/06/12 00:06:57;;;;;;;7.28;4.20;;;25.40;59.20;;;;;;6139087;23;20005;-88
2023/06/12 00:09:23;;;;;;;7.95;3.70;;;25.30;59.10;;;;;;6183449;23;20069;-88
2023/06/12 00:11:49;;;;;;;11.52;4.45;;;25.30;59.30;;;;;;6189741;23;20446;-89
2023/06/12 00:14:15;;;;;;;8.25;3.75;;;25.20;59.20;;;;;;6185544;23;20006;-89
2023/06/12 00:16:40;;;;;;;5.60;3.80;;;25.20;59.50;;;;;;6185933;23;20001;-90
2023/06/12 00:19:06;;;;;;;5.20;3.75;;;25.20;59.30;;;;;;6160826;23;20419;-89
2023/06/12 00:21:32;;;;;;;7.03;3.75;;;25.10;59.40;;;;;;6160968;23;20074;-89
2023/06/12 00:23:57;;;;;;;5.45;3.50;;;25.10;59.60;;;;;;6187212;23;20001;-89
2023/06/12 00:26:23;;;;;;;6.50;3.90;;;25.10;59.50;;;;;;6193103;23;19997;-89
2023/06/12 00:28:49;;;;;;;6.53;3.88;;;25.00;59.70;;;;;;6211073;23;20009;-89
2023/06/12 00:31:15;;;;;;;8.10;4.05;;;25.00;59.20;;;;;;6187371;23;19996;-90
2023/06/12 00:33:41;;;;;;;5.60;3.58;;;25.00;59.40;;;;;;6185099;23;20491;-89
2023/06/12 00:36:07;;;;;;;8.07;3.55;;;24.90;59.30;;;;;;6198750;23;20044;-88
2023/06/12 00:38:34;;;;;;;5.60;3.58;;;24.90;59.10;;;;;;6162968;23;20013;-89
2023/06/12 00:41:00;;;;;;;5.32;3.65;;;24.90;59.30;;;;;;6163472;23;20020;-89
2023/06/12 00:43:29;;;;;;;6.07;4.00;;;24.80;59.50;;;;;;6187488;23;20515;-88
2023/06/12 00:45:57;;;;;;;8.57;3.90;;;24.80;59.60;;;;;;6163322;23;20051;-88
2023/06/12 00:48:23;;;;;;;6.15;3.88;;;24.80;59.40;;;;;;6142887;23;20001;-89
2023/06/12 00:50:49;;;;;;;6.72;3.72;;;24.70;59.40;;;;;;6185519;23;20009;-89
2023/06/12 00:53:15;;;;;;;7.22;4.32;;;24.70;59.10;;;;;;6211834;23;20085;-89
2023/06/12 00:55:41;;;;;;;10.18;4.35;;;24.70;59.40;;;;;;6185168;23;20005;-89
2023/06/12 00:58:06;;;;;;;6.68;3.63;;;24.60;59.40;;;;;;6209260;23;20032;-88
2023/06/12 01:00:32;;;;;;;7.53;3.80;;;24.60;59.60;;;;;;6184535;23;19996;-90
2023/06/12 01:03:05;;;;;;;7.97;4.07;;;24.60;59.90;;;;;;6181296;23;20084;-89
2023/06/12 01:05:36;;;;;;;7.35;4.15;;;24.50;59.80;;;;;;6188003;23;20049;-89
2023/06/12 01:08:17;;;;;;;5.35;3.47;;;24.50;59.80;;;;;;6188113;23;20001;-90
2023/06/12 01:10:48;;;;;;;;;;;24.50;60.30;;;;;;6187680;23;20035;-89
2023/06/12 01:13:16;;;;;;;6.10;4.03;;;24.40;61.10;;;;;;6187203;23;19949;-89
2023/06/12 01:15:42;;;;;;;5.75;3.90;;;24.30;60.60;;;;;;6162825;23;20012;-89
2023/06/12 01:18:08;;;;;;;8.38;4.00;;;24.30;60.70;;;;;;6187051;23;20005;-89
2023/06/12 01:20:34;;;;;;;5.82;3.88;;;24.30;60.90;;;;;;6162447;23;20013;-89
2023/06/12 01:23:27;;;;;;;6.53;3.72;;;24.30;60.80;;;;;;6187063;23;19998;-89
2023/06/12 01:25:56;;;;;;;6.05;3.42;;;24.20;61.40;;;;;;6186698;23;20028;-89
2023/06/12 01:28:40;;;;;;;7.53;3.83;;;24.20;60.80;;;;;;6188172;23;20001;-89
2023/06/12 01:31:13;;;;;;;9.07;3.88;;;24.10;61.30;;;;;;6187165;23;20012;-89
2023/06/12 01:33:42;;;;;;;7.47;3.78;;;24.10;61.50;;;;;;6187638;23;20012;-89
2023/06/12 01:36:13;;;;;;;6.18;3.58;;;24.00;61.40;;;;;;6187006;23;20005;-89
2023/06/12 01:38:41;;;;;;;5.38;3.75;;;24.00;61.50;;;;;;6187040;23;20001;-89
2023/06/12 01:41:08;;;;;;;7.40;3.90;;;23.90;61.50;;;;;;6187147;23;20080;-89
2023/06/12 01:43:35;;;;;;;6.93;3.80;;;23.90;61.50;;;;;;6162568;23;20009;-89
2023/06/12 01:46:01;;;;;;;7.68;3.80;;;23.80;61.50;;;;;;6187066;23;20001;-89
2023/06/12 01:48:27;;;;;;;6.82;3.75;;;23.80;61.60;;;;;;6161875;23;20016;-89
2023/06/12 01:50:53;;;;;;;5.97;4.22;;;23.80;61.80;;;;;;6137610;23;20447;-90
2023/06/12 01:53:18;;;;;;;6.72;4.13;;;23.70;61.70;;;;;;6141015;23;20056;-88
2023/06/12 01:55:44;;;;;;;5.43;3.92;;;23.70;61.70;;;;;;6187658;23;20024;-89
2023/06/12 01:58:10;;;;;;;9.13;3.60;;;23.60;61.70;;;;;;6137912;23;20001;-88
2023/06/12 02:00:36;;;;;;;5.70;4.07;;;23.60;61.60;;;;;;6162015;23;20023;-89
2023/06/12 02:03:01;;;;;;;5.35;3.72;;;23.60;62.00;;;;;;6137784;23;20009;-89
2023/06/12 02:05:28;;;;;;;6.82;4.32;;;23.50;62.00;;;;;;6186847;23;20017;-89
2023/06/12 02:07:53;;;;;;;6.50;4.03;;;23.50;62.20;;;;;;6186670;23;20024;-89
2023/06/12 02:10:19;;;;;;;4.95;3.65;;;23.40;62.20;;;;;;6186355;23;20009;-89
2023/06/12 02:12:45;;;;;;;7.65;4.20;;;23.40;62.40;;;;;;6161988;23;20033;-89
2023/06/12 02:15:12;;;;;;;5.57;3.75;;;23.40;62.30;;;;;;6162490;23;20001;-89
2023/06/12 02:17:38;;;;;;;9.85;4.18;;;23.40;62.60;;;;;;6161842;23;20438;-89
2023/06/12 02:20:04;;;;;;;6.72;3.85;;;23.40;62.50;;;;;;6161944;23;20011;-88
2023/06/12 02:22:30;;;;;;;6.13;3.75;;;23.30;62.40;;;;;;6186911;23;20004;-89
2023/06/12 02:24:56;;;;;;;7.35;4.13;;;23.30;62.40;;;;;;6186860;23;20085;-89
2023/06/12 02:27:22;;;;;;;6.90;4.22;;;23.20;62.70;;;;;;6186351;23;20084;-90
2023/06/12 02:29:48;;;;;;;6.10;3.85;;;23.20;62.60;;;;;;6186314;23;20328;-89
2023/06/12 02:32:17;;;;;;;7.00;3.85;;;23.10;62.40;;;;;;6186441;23;20080;-89
2023/06/12 02:34:43;;;;;;;9.10;4.10;;;23.10;62.40;;;;;;6186095;23;20085;-88
2023/06/12 02:37:09;;;;;;;8.15;3.85;;;23.10;62.60;;;;;;6162051;23;20001;-88
2023/06/12 02:39:36;;;;;;;7.28;4.03;;;23.10;63.10;;;;;;6161523;23;20052;-89
2023/06/12 02:42:01;;;;;;;7.00;3.80;;;23.10;62.90;;;;;;6136977;23;20323;-88
2023/06/12 02:44:27;;;;;;;8.10;4.00;;;23.00;63.60;;;;;;6161253;23;20005;-88
2023/06/12 02:46:58;;;;;;;5.75;3.65;;;23.00;62.90;;;;;;6185939;23;20016;-88
2023/06/12 02:49:26;;;;;;;7.22;4.30;;;23.00;63.30;;;;;;6186288;23;20008;-89
2023/06/12 02:51:52;;;;;;;7.82;4.00;;;22.90;63.20;;;;;;6161397;23;20482;-88
2023/06/12 02:54:21;;;;;;;6.88;4.03;;;22.90;63.30;;;;;;6161530;23;20005;-89
2023/06/12 02:56:46;;;;;;;6.15;3.83;;;22.90;63.50;;;;;;6161274;23;20005;-88
2023/06/12 02:59:17;;;;;;;6.78;3.75;;;22.80;63.50;;;;;;6136763;23;20059;-89
2023/06/12 03:01:44;;;;;;;7.40;3.97;;;22.80;63.40;;;;;;6187473;23;20004;-89
2023/06/12 03:04:20;;;;;;;6.40;3.85;;;22.80;63.30;;;;;;6186104;23;20418;-90
2023/06/12 03:06:52;;;;;;;5.82;3.58;;;22.70;63.50;;;;;;6186074;23;20020;-89
2023/06/12 03:09:18;;;;;;;4.88;3.90;;;22.70;63.50;;;;;;6186056;23;20001;-89
2023/06/12 03:11:45;;;;;;;5.65;3.40;;;22.70;63.40;;;;;;6170477;23;20084;-89
2023/06/12 03:14:12;;;;;;;7.35;4.13;;;22.70;63.30;;;;;;6204030;23;20016;-88
2023/06/12 03:16:38;;;;;;;6.07;3.88;;;22.70;63.50;;;;;;6201839;23;20005;-89
2023/06/12 03:19:04;;;;;;;7.82;4.68;;;22.60;63.20;;;;;;6189735;23;20055;-89
2023/06/12 03:21:29;;;;;;;5.25;3.75;;;22.60;63.20;;;;;;6163269;23;20005;-90
2023/06/12 03:23:56;;;;;;;6.10;3.88;;;22.60;63.40;;;;;;6191667;23;20002;-90
2023/06/12 03:26:22;;;;;;;6.30;4.00;;;22.50;63.50;;;;;;6191627;23;20139;-89
2023/06/12 03:28:49;;;;;;;6.25;3.90;;;22.50;63.90;;;;;;6168136;23;20008;-89
2023/06/12 03:31:17;;;;;;;9.23;4.13;;;22.50;63.90;;;;;;6208556;23;20001;-89
2023/06/12 03:33:43;;;;;;;8.63;4.93;;;22.50;64.00;;;;;;6186752;23;20004;-90
2023/06/12 03:36:11;;;;;;;9.10;4.93;;;22.40;64.10;;;;;;6184342;23;20036;-89
2023/06/12 03:38:36;;;;;;;7.35;4.70;;;22.40;64.10;;;;;;6170639;23;20005;-89
2023/06/12 03:41:02;;;;;;;7.80;4.68;;;22.30;64.00;;;;;;6165450;23;20012;-89
2023/06/12 03:43:28;;;;;;;14.07;4.80;;;22.30;64.20;;;;;;6151554;23;20025;-90
2023/06/12 03:45:54;;;;;;;8.63;4.03;;;22.30;64.30;;;;;;6171899;23;20008;-89
2023/06/12 03:48:19;;;;;;;8.73;3.97;;;22.30;64.10;;;;;;6161451;23;20032;-90
2023/06/12 03:50:45;;;;;;;6.75;4.00;;;22.30;64.40;;;;;;6136013;23;20016;-90
2023/06/12 03:53:11;;;;;;;5.78;3.90;;;22.20;64.40;;;;;;6160568;23;20024;-89
2023/06/12 03:55:37;;;;;;;6.00;4.32;;;22.20;64.60;;;;;;6160827;23;20016;-89
2023/06/12 03:58:03;;;;;;;7.70;4.50;;;22.20;64.60;;;;;;6189244;23;20005;-89
2023/06/12 04:00:29;;;;;;;7.60;4.30;;;22.20;64.60;;;;;;6163104;23;20009;-89
2023/06/12 04:02:55;;;;;;;7.40;3.60;;;22.20;64.70;;;;;;6163191;23;20432;-89
2023/06/12 04:05:21;;;;;;;5.85;3.88;;;22.20;65.00;;;;;;6179075;23;20017;-90
2023/06/12 04:07:47;;;;;;;10.73;3.60;;;22.20;65.30;;;;;;6163009;23;20009;-89
2023/06/12 04:10:13;;;;;;;6.35;3.80;;;22.10;65.10;;;;;;6162768;23;20071;-89
2023/06/12 04:12:38;;;;;;;5.60;3.95;;;22.10;65.00;;;;;;6187372;23;20009;-89
2023/06/12 04:15:05;;;;;;;5.90;4.22;;;22.10;65.20;;;;;;6138284;23;20011;-89
2023/06/12 04:17:31;;;;;;;6.13;3.67;;;22.10;65.30;;;;;;6163324;23;20009;-89
2023/06/12 04:19:57;;;;;;;6.70;3.60;;;22.10;65.20;;;;;;6163175;23;20105;-89
2023/06/12 04:22:25;;;;;;;7.72;4.45;;;22.10;65.50;;;;;;6187973;23;20001;-90
2023/06/12 04:24:52;;;;;;;6.75;4.07;;;22.10;65.80;;;;;;6187725;23;20019;-89
2023/06/12 04:27:18;;;;;;;6.07;4.00;;;22.10;66.10;;;;;;6163235;23;20001;-89
2023/06/12 04:29:45;;;;;;;10.00;4.00;;;22.10;66.20;;;;;;6138611;23;20013;-89
2023/06/12 04:32:13;;;;;;;6.88;4.00;;;22.10;66.30;;;;;;6163488;23;20009;-89
2023/06/12 04:34:41;;;;;;;7.30;4.28;;;22.10;66.10;;;;;;6187508;23;20389;-90
2023/06/12 04:37:14;;;;;;;6.53;3.80;;;22.10;66.60;;;;;;6187706;23;20005;-89
2023/06/12 04:39:43;;;;;;;8.10;4.00;;;22.10;66.60;;;;;;6163786;23;20001;-89
2023/06/12 04:42:10;;;;;;;6.78;4.07;;;22.00;66.80;;;;;;6198400;23;19997;-90
2023/06/12 04:44:37;;;;;;;6.93;3.90;;;22.00;67.20;;;;;;6187579;23;20001;-85
2023/06/12 04:47:08;;;;;;;6.93;4.50;;;22.00;67.20;;;;;;6188112;23;20002;-85
2023/06/12 04:49:35;;;;;;;6.13;3.92;;;22.00;67.40;;;;;;6212418;23;20064;-85
2023/06/12 04:52:03;;;;;;;6.85;4.20;;;22.00;67.70;;;;;;6211947;23;20024;-84
2023/06/12 04:54:53;;;;;;;6.05;3.85;;;22.00;67.90;;;;;;6210811;23;20001;-84
2023/06/12 04:57:18;;;;;;;7.97;4.47;;;22.00;68.10;;;;;;6200827;23;20006;-85
2023/06/12 04:59:44;;;;;;;8.40;4.15;;;22.00;68.40;;;;;;6188231;23;20001;-85
2023/06/12 05:02:11;;;;;;;7.35;4.20;;;22.00;68.40;;;;;;6162987;23;20001;-89
2023/06/12 05:04:41;;;;;;;7.13;3.90;;;22.00;68.20;;;;;;6170800;23;20076;-89
2023/06/12 05:07:14;;;;;;;6.85;3.90;;;22.00;68.30;;;;;;6163767;23;20009;-91
2023/06/12 05:09:43;;;;;;;7.07;4.00;;;22.00;68.50;;;;;;6163733;23;20001;-90
2023/06/12 05:12:12;;;;;;;7.15;4.10;;;22.00;68.50;;;;;;6188727;23;20084;-89
2023/06/12 05:14:43;;;;;;;6.07;3.90;;;22.00;68.30;;;;;;6190562;23;20001;-89
2023/06/12 05:17:09;;;;;;;6.30;4.00;;;22.00;68.60;;;;;;6190424;23;20305;-89
2023/06/12 05:19:38;;;;;;;7.53;3.92;;;22.00;68.90;;;;;;6187793;23;20001;-93
2023/06/12 05:22:04;;;;;;;10.13;4.65;;;22.10;69.10;;;;;;6187333;23;20005;-90
2023/06/12 05:24:30;;;;;;;7.32;4.30;;;22.10;69.20;;;;;;6188387;23;19997;-89
2023/06/12 05:26:55;;;;;;;6.53;4.25;;;22.10;69.20;;;;;;6163853;23;20059;-90
2023/06/12 05:29:24;;;;;;;7.00;4.40;;;22.10;69.20;;;;;;6188569;23;20319;-89
2023/06/12 05:31:50;;;;;;;8.45;4.45;;;22.10;69.30;;;;;;6163155;23;20009;-89
2023/06/12 05:34:15;;;;;;;10.90;4.80;;;22.10;69.30;;;;;;6162552;23;20016;-89
2023/06/12 05:36:41;;;;;;;9.23;4.47;;;22.10;69.20;;;;;;6162746;23;20012;-89
2023/06/12 05:39:09;;;;;;;10.00;4.57;;;22.20;69.20;;;;;;6186900;23;20033;-89
2023/06/12 05:41:35;;;;;;;10.50;4.85;;;22.20;68.90;;;;;;6187162;23;20001;-89
2023/06/12 05:44:03;;;;;;;8.38;4.95;;;22.20;69.30;;;;;;6187057;23;20008;-89
2023/06/12 05:46:32;;;;;;;6.47;4.40;;;22.20;69.70;;;;;;6166541;23;20135;-89
2023/06/12 05:48:58;;;;;;;8.27;4.65;;;22.20;69.80;;;;;;6188530;23;20433;-90
2023/06/12 05:51:27;;;;;;;9.50;4.60;;;22.20;69.90;;;;;;6163652;23;20092;-89
2023/06/12 05:53:53;;;;;;;11.48;4.40;;;22.20;69.90;;;;;;6189939;23;20009;-90
2023/06/12 05:56:19;;;;;;;9.40;4.80;;;22.30;70.00;;;;;;6165095;23;20474;-89
2023/06/12 05:58:45;;;;;;;13.40;4.70;;;22.30;69.80;;;;;;6192314;23;20032;-90
2023/06/12 06:01:16;;;;;;;10.20;4.72;;;22.30;70.00;;;;;;6165500;23;20088;-89
2023/06/12 06:03:45;;;;;;;8.98;4.55;;;22.30;70.20;;;;;;6195083;23;20000;-89
2023/06/12 06:06:15;;;;;;;7.60;4.35;;;22.40;70.40;;;;;;6202560;23;20042;-89
2023/06/12 06:08:42;;;;;;;7.97;4.30;;;22.40;69.90;;;;;;6176815;23;20001;-90
2023/06/12 06:11:08;;;;;;;6.07;4.25;;;22.40;69.10;;;;;;6230661;23;20115;-90
2023/06/12 06:13:43;;;;;;;5.82;4.20;;;22.40;69.50;;;;;;6233829;23;20024;-88
2023/06/12 06:18:45;;;;;;;7.07;4.53;;;22.50;70.00;;;;;;6213270;23;20363;-93
2023/06/12 06:21:11;;;;;;;7.55;4.30;;;22.50;69.70;;;;;;6192912;23;20008;-94
2023/06/12 06:23:47;;;;;;;;;;;;;;;;;;;;;
2023/06/12 06:26:15;;;;;;;13.10;4.60;;;22.60;69.30;;;;;;6229091;23;20043;-92
2023/06/12 06:28:41;;;;;;;6.50;4.40;;;22.60;69.70;;;;;;6199375;23;20008;-93
2023/06/12 06:31:07;;;;;;;27.23;5.30;;;22.60;69.90;;;;;;6173538;23;20008;-93
2023/06/12 06:33:33;;;;;;;9.30;4.55;;;22.70;70.00;;;;;;6238449;23;20011;-93
2023/06/12 06:35:59;;;;;;;10.68;4.80;;;22.70;70.10;;;;;;6174406;23;20004;-95
2023/06/12 06:38:28;;;;;;;7.85;4.40;;;22.70;70.10;;;;;;6193645;23;20009;-92
2023/06/12 06:40:54;;;;;;;9.25;4.85;;;22.80;70.10;;;;;;6193161;23;20012;-93
2023/06/12 06:43:21;;;;;;;7.25;4.75;;;22.80;70.00;;;;;;6193735;23;20004;-93
2023/06/12 06:45:47;;;;;;;7.70;4.22;;;22.90;69.60;;;;;;6194613;23;20445;-93
2023/06/12 06:48:13;;;;;;;8.50;4.18;;;22.90;69.30;;;;;;6193344;23;20076;-90
2023/06/12 06:50:40;;;;;;;6.45;3.78;;;22.90;69.30;;;;;;6192961;23;20087;-92
2023/06/12 06:53:06;;;;;;;6.65;4.18;;;22.90;69.20;;;;;;6168289;23;20005;-92
2023/06/12 06:55:38;;;;;;;6.43;4.30;;;23.00;69.50;;;;;;6193212;23;20023;-94
2023/06/12 06:58:04;;;;;;;8.15;4.40;;;23.00;69.90;;;;;;6193463;23;20473;-94
2023/06/12 07:00:32;;;;;;;9.93;4.57;;;23.10;69.90;;;;;;6193185;23;20004;-94
2023/06/12 07:02:58;;;;;;;7.40;4.60;;;23.10;69.80;;;;;;6171424;23;20000;-93
2023/06/12 07:05:30;;;;;;;8.32;4.53;;;23.20;70.00;;;;;;6167372;23;20093;-94
2023/06/12 07:07:56;;;;;;;8.05;4.30;;;23.20;69.80;;;;;;6193809;23;20409;-94
2023/06/12 07:10:22;;;;;;;9.30;5.15;;;23.30;69.80;;;;;;6220640;23;20001;-91
2023/06/12 07:12:56;;;;;;;8.55;3.92;;;23.30;69.50;;;;;;6194646;23;20063;-92
2023/06/12 07:15:24;;;;;;;6.47;4.30;;;23.30;69.60;;;;;;6186362;23;20024;-93
2023/06/12 07:17:52;;;;;;;7.88;4.50;;;23.40;69.70;;;;;;6177413;23;20047;-92
2023/06/12 07:20:27;;;;;;;7.43;4.70;;;23.40;69.60;;;;;;6218455;23;20496;-94
2023/06/12 07:22:58;;;;;;;8.40;4.57;;;23.50;69.80;;;;;;6191149;23;20016;-90
2023/06/12 07:25:36;;;;;;;;;;;;;;;;;;;;;
2023/06/12 07:28:05;;;;;;;13.23;5.00;;;23.60;69.90;;;;;;6218734;23;20076;-95
2023/06/12 07:30:33;;;;;;;9.55;4.75;;;23.70;70.00;;;;;;6194273;23;20054;-94
2023/06/12 07:33:03;;;;;;;11.27;4.68;;;23.70;69.80;;;;;;6192927;23;20001;-94
2023/06/12 07:35:29;;;;;;;16.92;4.78;;;23.70;69.60;;;;;;6194754;23;20004;-94
2023/06/12 07:38:04;;;;;;;13.05;4.47;;;23.80;69.40;;;;;;6174635;23;19996;-92
2023/06/12 07:40:30;;;;;;;13.25;4.30;;;23.80;69.60;;;;;;6161272;23;20009;-93
2023/06/12 07:42:59;;;;;;;9.32;5.55;;;23.90;69.70;;;;;;6203597;23;20084;-91
2023/06/12 07:45:27;;;;;;;8.43;4.45;;;24.00;69.50;;;;;;6193543;23;20005;-93
2023/06/12 07:47:56;;;;;;;7.05;4.90;;;24.00;69.10;;;;;;6192612;23;20016;-94
2023/06/12 07:50:22;;;;;;;8.07;4.50;;;24.10;69.00;;;;;;6191636;23;20300;-94
2023/06/12 07:52:48;;;;;;;7.15;4.95;;;24.10;68.90;;;;;;6192707;23;20031;-94
2023/06/12 07:55:14;;;;;;;9.18;5.35;;;24.20;69.30;;;;;;6192505;23;20009;-92
2023/06/12 07:57:40;;;;;;;8.93;4.93;;;24.20;69.10;;;;;;6192406;23;20004;-93
2023/06/12 08:00:09;;;;;;;8.85;4.68;;;24.30;69.10;;;;;;6192399;23;20008;-93
2023/06/12 08:02:38;;;;;;;6.07;4.45;;;24.40;69.10;;;;;;6196393;23;20438;-94
2023/06/12 08:05:10;;;;;;;8.70;4.80;;;24.40;69.50;;;;;;6169901;23;20039;-96
2023/06/12 08:07:38;;;;;;;8.90;4.50;;;24.50;69.30;;;;;;6168416;23;20015;-95
2023/06/12 08:10:07;;;;;;;7.32;4.60;;;24.50;68.90;;;;;;6195365;23;20001;-95
2023/06/12 08:12:40;;;;;;;8.20;4.38;;;24.60;69.10;;;;;;6221364;23;20024;-96
2023/06/12 08:15:15;;;;;;;10.00;5.00;;;24.60;68.80;;;;;;6167229;23;20001;-95
2023/06/12 08:17:44;;;;;;;6.90;4.38;;;24.70;68.10;;;;;;6170245;23;20017;-95
2023/06/12 08:20:32;;;;;;;8.48;4.90;;;24.80;68.50;;;;;;6168667;23;20013;-96
2023/06/12 08:22:58;;;;;;;6.72;4.80;;;24.90;66.80;;;;;;6194545;23;20005;-95
2023/06/12 08:25:34;;;;;;;6.97;3.92;;;24.90;66.40;;;;;;6166778;23;20001;-95
2023/06/12 08:28:29;;;;;;;6.50;4.13;;;25.00;66.90;;;;;;6163186;23;20052;-94
2023/06/12 08:31:24;;;;;;;;;;;;;;;;;;;;;
2023/06/12 08:33:53;;;;;;;7.47;4.32;;;25.10;66.70;;;;;;6187470;23;20168;-93
2023/06/12 08:36:21;;;;;;;8.70;4.35;;;25.20;66.80;;;;;;6160268;23;20001;-93
2023/06/12 08:38:47;;;;;;;8.35;4.38;;;25.30;67.10;;;;;;6161744;23;20001;-93
2023/06/12 08:41:17;;;;;;;6.15;4.20;;;25.30;67.40;;;;;;6161206;23;20009;-92
2023/06/12 08:44:05;;;;;;;;;;;;;;;;;;;;;
2023/06/12 08:46:34;;;;;;;6.35;4.80;;;25.50;67.70;;;;;;6200092;23;20036;-91
2023/06/12 08:49:05;;;;;;;6.35;4.63;;;25.50;67.60;;;;;;6174484;23;19998;-91
2023/06/12 08:51:35;;;;;;;7.65;4.45;;;25.60;67.50;;;;;;6176328;23;20139;-92
2023/06/12 08:54:06;;;;;;;7.18;4.65;;;25.70;67.90;;;;;;6163267;23;20097;-93
2023/06/12 08:56:33;;;;;;;8.80;5.57;;;25.70;67.20;;;;;;6163374;23;19997;-92
2023/06/12 08:59:20;;;;;;;6.13;4.40;;;25.80;66.70;;;;;;6163100;23;20009;-92
2023/06/12 09:01:53;;;;;;;8.10;4.88;;;25.90;66.20;;;;;;6163583;23;20023;-90
2023/06/12 09:04:52;;;;;;;9.85;4.90;;;25.90;65.40;;;;;;6162867;23;20005;-91
2023/06/12 09:07:21;;;;;;;9.45;4.30;;;26.00;63.60;;;;;;6162139;23;20037;-91
2023/06/12 09:09:52;;;;;;;7.63;4.80;;;26.10;64.20;;;;;;6163129;23;20513;-92
2023/06/12 09:12:18;;;;;;;10.05;6.22;;;26.10;64.40;;;;;;6162819;23;20490;-92
2023/06/12 09:14:50;;;;;;;9.30;6.45;;;26.20;63.90;;;;;;6162384;23;20051;-91
2023/06/12 09:17:28;;;;;;;7.15;5.18;;;26.30;64.30;;;;;;6162918;23;20092;-92
2023/06/12 09:19:54;;;;;;;9.02;4.70;;;26.30;65.30;;;;;;6187690;23;20109;-93
2023/06/12 09:22:25;;;;;;;7.20;5.18;;;26.40;65.00;;;;;;6162573;23;19997;-94
2023/06/12 09:24:51;;;;;;;9.45;4.95;;;26.50;63.10;;;;;;6164054;23;20004;-93
2023/06/12 09:27:22;;;;;;;8.20;4.97;;;26.50;62.10;;;;;;6153129;23;20041;-90
2023/06/12 09:29:48;;;;;;;8.77;4.82;;;26.60;62.20;;;;;;6160581;23;20005;-91
2023/06/12 09:32:15;;;;;;;7.53;4.57;;;26.60;62.70;;;;;;6158430;23;20302;-89
2023/06/12 09:34:51;;;;;;;8.43;5.00;;;26.70;63.40;;;;;;6157494;23;20021;-93
2023/06/12 09:37:17;;;;;;;5.95;4.45;;;26.80;64.00;;;;;;6157856;23;20005;-93
2023/06/12 09:39:44;;;;;;;10.27;5.47;;;26.80;64.20;;;;;;6157224;23;20394;-91
2023/06/12 09:42:16;;;;;;;6.60;4.28;;;26.90;64.10;;;;;;6156677;23;20012;-87
2023/06/12 09:44:45;;;;;;;6.13;4.30;;;26.90;64.40;;;;;;6181208;23;20017;-86
2023/06/12 09:47:12;;;;;;;7.10;4.93;;;27.00;64.40;;;;;;6155923;23;20380;-88
2023/06/12 09:49:41;;;;;;;7.78;4.40;;;27.10;64.60;;;;;;6131784;23;20068;-88
2023/06/12 09:52:12;;;;;;;8.52;4.80;;;27.10;64.50;;;;;;6155720;23;20021;-88
2023/06/12 09:54:50;;;;;;;;;;;27.20;64.20;;;;;;6158029;23;20008;-91
2023/06/12 09:57:22;;;;;;;9.45;4.28;;;27.20;63.90;;;;;;6156582;23;19900;-91
2023/06/12 09:59:56;;;;;;;9.15;4.70;;;27.30;64.00;;;;;;6163927;23;19998;-95
2023/06/12 10:02:25;;;;;;;7.32;4.07;;;27.30;64.50;;;;;;6157841;23;20013;-91
2023/06/12 10:05:01;;;;;;;6.82;4.30;;;27.40;63.20;;;;;;6157000;23;20001;-91
2023/06/12 10:08:09;;;;;;;5.85;4.75;;;27.40;62.20;;;;;;6156745;23;20005;-91
2023/06/12 10:10:48;;;;;;;6.25;4.03;;;27.50;59.80;;;;;;6158338;23;20029;-91
2023/06/12 10:13:14;;;;;;;5.60;4.35;;;27.60;60.40;;;;;;6139134;23;20009;-90
2023/06/12 10:15:40;;;;;;;7.13;4.22;;;27.60;60.50;;;;;;6139958;23;20006;-90
2023/06/12 10:18:13;;;;;;;8.00;4.20;;;27.70;60.40;;;;;;6160297;23;20472;-89
2023/06/12 10:20:44;;;;;;;5.50;4.15;;;27.70;60.40;;;;;;6159468;23;20017;-89
2023/06/12 10:23:16;;;;;;;10.20;4.63;;;27.80;60.50;;;;;;6159303;23;20009;-89
2023/06/12 10:25:42;;;;;;;9.82;4.70;;;27.90;59.60;;;;;;6157955;23;20337;-88
2023/06/12 10:28:09;;;;;;;6.22;4.65;;;27.90;59.10;;;;;;6183459;23;20052;-90
2023/06/12 10:31:13;;;;;;;6.60;4.80;;;28.00;59.10;;;;;;6161040;23;20009;-96
2023/06/12 10:36:53;;;;;;;5.55;4.28;;;28.10;58.90;;;;;;6180132;23;20109;-91
2023/06/12 10:39:30;;;;;;;7.13;4.97;;;28.10;58.70;;;;;;6156640;23;20017;-91
2023/06/12 10:42:22;;;;;;;6.68;4.70;;;28.20;57.80;;;;;;6143620;23;20009;-91
2023/06/12 10:44:54;;;;;;;6.40;4.63;;;28.20;57.30;;;;;;6168280;23;20005;-92
2023/06/12 10:47:26;;;;;;;6.40;4.60;;;28.30;57.50;;;;;;6132287;23;20006;-91
2023/06/12 10:50:06;;;;;;;5.72;4.30;;;28.30;57.20;;;;;;6159867;23;20013;-94
2023/06/12 10:52:32;;;;;;;7.28;4.72;;;28.40;56.80;;;;;;6160230;23;20005;-93
2023/06/12 10:55:26;;;;;;;7.32;4.45;;;28.40;56.90;;;;;;6159334;23;20009;-95
2023/06/12 10:57:55;;;;;;;5.95;4.28;;;28.50;57.20;;;;;;6159322;23;20006;-91
2023/06/12 11:00:27;;;;;;;9.32;5.30;;;28.60;57.40;;;;;;6156961;23;20032;-92
2023/06/12 11:03:10;;;;;;;9.32;4.90;;;28.60;57.60;;;;;;6157740;23;20011;-91
2023/06/12 11:06:00;;;;;;;6.05;4.85;;;28.60;57.00;;;;;;6157611;23;20045;-91
2023/06/12 11:08:34;;;;;;;8.35;4.40;;;28.80;56.40;;;;;;6157063;23;20029;-92
2023/06/12 11:11:10;;;;;;;5.38;4.47;;;28.80;56.70;;;;;;6156206;23;20424;-91
2023/06/12 11:13:43;;;;;;;6.30;4.25;;;28.90;56.90;;;;;;6157318;23;20413;-92
2023/06/12 11:16:26;;;;;;;9.80;5.32;;;28.90;57.40;;;;;;6157779;23;20106;-91
2023/06/12 11:19:08;;;;;;;6.10;4.60;;;29.00;56.70;;;;;;6156147;23;20012;-91
2023/06/12 11:21:45;;;;;;;9.35;5.10;;;29.00;56.40;;;;;;6157361;23;20001;-94
2023/06/12 11:24:35;;;;;;;6.75;4.93;;;29.10;56.40;;;;;;6156559;23;20009;-94
2023/06/12 11:27:08;;;;;;;10.03;4.93;;;29.20;55.70;;;;;;6150285;23;20006;-94
2023/06/12 11:29:39;;;;;;;8.75;4.72;;;29.20;56.30;;;;;;6162563;23;20020;-95
2023/06/12 11:32:05;;;;;;;6.30;4.97;;;29.30;56.70;;;;;;6161381;23;20012;-94
2023/06/12 11:34:51;;;;;;;6.55;4.65;;;29.30;56.40;;;;;;6161830;23;20024;-95
2023/06/12 11:37:28;;;;;;;6.47;4.75;;;29.40;56.40;;;;;;6161560;23;20004;-94
2023/06/12 11:40:19;;;;;;;7.72;4.30;;;29.40;56.40;;;;;;6178515;23;20001;-91
2023/06/12 11:42:50;;;;;;;6.53;4.65;;;29.50;56.30;;;;;;6178951;23;20016;-93
2023/06/12 11:45:18;;;;;;;9.00;4.97;;;29.50;56.00;;;;;;6175279;23;20001;-92
2023/06/12 11:47:49;;;;;;;6.05;4.60;;;29.60;55.90;;;;;;6166899;23;20009;-91
2023/06/12 11:50:25;;;;;;;;;;;29.70;56.00;;;;;;6168476;23;20005;-91
2023/06/12 11:52:51;;;;;;;6.75;4.47;;;29.70;56.20;;;;;;6174517;23;19907;-92
2023/06/12 11:55:21;;;;;;;6.13;4.60;;;29.70;56.10;;;;;;6164825;23;20033;-92
2023/06/12 11:57:50;;;;;;;6.43;4.57;;;29.70;54.90;;;;;;6165204;23;20009;-92
2023/06/12 12:00:20;;;;;;;6.95;4.70;;;29.80;54.90;;;;;;6161412;23;20425;-92
2023/06/12 12:02:53;;;;;;;7.15;4.50;;;29.90;55.50;;;;;;6161253;23;20037;-92
2023/06/12 12:05:53;;;;;;;8.05;4.55;;;29.90;55.70;;;;;;6163283;23;20364;-93
2023/06/12 12:08:26;;;;;;;8.55;4.78;;;30.00;55.30;;;;;;6161343;23;20009;-92
2023/06/12 12:10:54;;;;;;;13.63;4.72;;;30.00;55.40;;;;;;6161212;23;20005;-92
2023/06/12 12:13:20;;;;;;;6.75;4.80;;;30.10;54.80;;;;;;6162519;23;20011;-95
2023/06/12 12:15:46;;;;;;;9.48;4.45;;;30.10;53.00;;;;;;6162083;23;20091;-94
2023/06/12 12:18:17;;;;;;;6.78;4.28;;;30.20;52.10;;;;;;6162859;23;20012;-94
2023/06/12 12:20:43;;;;;;;7.57;4.50;;;30.20;51.60;;;;;;6164331;23;20024;-95
2023/06/12 12:23:12;;;;;;;5.93;4.32;;;30.30;51.60;;;;;;6164618;23;20008;-94
2023/06/12 12:25:40;;;;;;;7.27;4.13;;;30.30;52.30;;;;;;6164983;23;20016;-96
2023/06/12 12:28:08;;;;;;;6.20;4.72;;;30.40;52.60;;;;;;6163818;23;20028;-92
2023/06/12 12:30:34;;;;;;;6.30;4.43;;;30.40;52.80;;;;;;6165897;23;20032;-92
2023/06/12 12:33:00;;;;;;;8.25;5.10;;;30.50;53.20;;;;;;6164223;23;20416;-93
2023/06/12 12:35:28;;;;;;;6.97;4.47;;;30.60;53.40;;;;;;6162931;23;20020;-93
2023/06/12 12:37:56;;;;;;;7.18;5.13;;;30.60;53.70;;;;;;6163507;23;20425;-92
2023/06/12 12:40:28;;;;;;;7.32;4.65;;;30.60;53.40;;;;;;6163493;23;20087;-93
2023/06/12 12:42:54;;;;;;;5.85;4.30;;;30.60;51.90;;;;;;6163671;23;20009;-93
2023/06/12 12:45:26;;;;;;;6.18;4.32;;;30.70;51.20;;;;;;6164291;23;20083;-92
2023/06/12 12:47:52;;;;;;;8.23;4.63;;;30.80;51.50;;;;;;6165732;23;20036;-92
2023/06/12 12:50:19;;;;;;;7.13;4.75;;;30.80;52.40;;;;;;6164933;23;20013;-92
2023/06/12 12:52:48;;;;;;;6.85;4.80;;;30.90;50.80;;;;;;6164878;23;20004;-92
2023/06/12 12:55:14;;;;;;;6.63;4.30;;;30.90;51.10;;;;;;6163742;23;20008;-91
2023/06/12 12:57:42;;;;;;;6.00;4.28;;;30.90;51.50;;;;;;6163149;23;20009;-91
2023/06/12 13:00:12;;;;;;;6.85;4.70;;;31.00;51.00;;;;;;6163190;23;20009;-92
2023/06/12 13:02:40;;;;;;;5.97;4.63;;;31.10;51.00;;;;;;6163384;23;20056;-91
2023/06/12 13:05:11;;;;;;;6.50;4.55;;;31.10;50.30;;;;;;6162821;23;20005;-92
2023/06/12 13:07:38;;;;;;;7.05;4.45;;;31.10;49.90;;;;;;6163303;23;20009;-92
2023/06/12 13:10:12;;;;;;;8.25;4.80;;;31.20;49.90;;;;;;6162968;23;20001;-89